createdAt,value
2019-05-01T00:01:40.267Z,101690.26
2019-05-01T00:04:29.070Z,101687.31
2019-05-01T00:07:01.890Z,101683.81
2019-05-01T00:09:32.240Z,101679.42
2019-05-01T00:12:02.670Z,101684.52
2019-05-01T00:14:34.691Z,101689.05
2019-05-01T00:17:06.815Z,101687.44
2019-05-01T00:19:37.257Z,101689.96
2019-05-01T00:22:07.856Z,101689.62
2019-05-01T00:24:38.739Z,101684.02
2019-05-01T00:27:09.051Z,101679.07
2019-05-01T00:29:39.421Z,101671.56
2019-05-01T00:32:09.795Z,101677.84
2019-05-01T00:34:40.374Z,101673.69
2019-05-01T00:37:10.803Z,101673.62
2019-05-01T00:39:43.561Z,101669.94
2019-05-01T00:42:13.802Z,101672.14
2019-05-01T00:44:46.000Z,101675.80
2019-05-01T00:47:16.411Z,101680.04
2019-05-01T00:49:47.829Z,101673.23
2019-05-01T00:52:18.120Z,101671.47
2019-05-01T00:54:50.475Z,101668.92
2019-05-01T00:57:33.328Z,101671.22
2019-05-01T01:00:42.794Z,101672.17
2019-05-01T01:03:08.272Z,101670.75
2019-05-01T01:05:38.740Z,101665.04
2019-05-01T01:08:09.435Z,101662.17
2019-05-01T01:10:39.743Z,101663.27
2019-05-01T01:13:11.264Z,101661.19
2019-05-01T01:15:41.598Z,101659.95
2019-05-01T01:18:12.759Z,101647.77
2019-05-01T01:20:43.142Z,101653.84
2019-05-01T01:23:13.860Z,101653.20
2019-05-01T01:25:44.193Z,101644.84
2019-05-01T01:28:15.661Z,101643.01
2019-05-01T01:30:56.244Z,101642.62
2019-05-01T01:33:18.211Z,101642.77
2019-05-01T01:35:48.975Z,101638.44
2019-05-01T01:38:19.364Z,101640.64
2019-05-01T01:40:50.337Z,101637.42
2019-05-01T01:43:38.006Z,101640.28
2019-05-01T01:46:09.574Z,101642.05
2019-05-01T01:48:40.488Z,101648.11
2019-05-01T01:51:10.939Z,101638.02
2019-05-01T01:53:43.557Z,101641.34
2019-05-01T01:56:13.874Z,101634.30
2019-05-01T01:58:44.612Z,101637.73
2019-05-01T02:01:38.268Z,101637.09
2019-05-01T02:04:26.369Z,101635.64
2019-05-01T02:06:58.075Z,101635.15
2019-05-01T02:09:28.875Z,101634.58
2019-05-01T02:12:01.683Z,101635.36
2019-05-01T02:14:32.983Z,101632.03
2019-05-01T02:17:04.750Z,101636.35
2019-05-01T02:19:35.137Z,101635.81
2019-05-01T02:22:05.614Z,101632.20
2019-05-01T02:24:35.876Z,101631.70
2019-05-01T02:27:10.872Z,101629.22
2019-05-01T02:29:46.532Z,101620.52
2019-05-01T02:32:18.508Z,101619.63
2019-05-01T02:34:49.808Z,101614.36
2019-05-01T02:37:22.296Z,101617.04
2019-05-01T02:39:53.005Z,101614.11
2019-05-01T02:42:28.838Z,101616.16
2019-05-01T02:45:02.774Z,101619.98
2019-05-01T02:47:37.172Z,101610.54
2019-05-01T02:50:11.449Z,101607.56
2019-05-01T02:52:44.054Z,101606.63
2019-05-01T02:55:29.716Z,101606.63
2019-05-01T02:58:01.064Z,101610.45
2019-05-01T03:00:31.984Z,101601.17
2019-05-01T03:03:02.765Z,101607.84
2019-05-01T03:05:33.078Z,101606.65
2019-05-01T03:08:03.968Z,101609.51
2019-05-01T03:10:34.476Z,101610.10
2019-05-01T03:13:05.206Z,101608.77
2019-05-01T03:15:37.589Z,101601.27
2019-05-01T03:18:18.814Z,101603.87
2019-05-01T03:21:10.931Z,101609.73
2019-05-01T03:23:58.139Z,101609.27
2019-05-01T03:26:28.734Z,101606.91
2019-05-01T03:28:59.052Z,101607.38
2019-05-01T03:31:29.610Z,101601.42
2019-05-01T03:33:59.989Z,101606.75
2019-05-01T03:36:30.767Z,101603.88
2019-05-01T03:39:01.701Z,101604.49
2019-05-01T03:41:34.136Z,101596.26
2019-05-01T03:44:05.205Z,101602.86
2019-05-01T03:46:36.346Z,101601.47
2019-05-01T03:49:06.970Z,101596.66
2019-05-01T03:51:38.605Z,101604.60
2019-05-01T03:54:09.212Z,101605.81
2019-05-01T03:56:39.602Z,101604.53
2019-05-01T03:59:10.346Z,101600.03
2019-05-01T04:02:00.258Z,101602.12
2019-05-01T04:04:32.463Z,101603.56
2019-05-01T04:07:02.860Z,101606.28
2019-05-01T04:09:34.758Z,101602.56
2019-05-01T04:12:05.502Z,101597.08
2019-05-01T04:14:39.104Z,101598.35
2019-05-01T04:17:18.821Z,101596.26
2019-05-01T04:19:50.845Z,101600.26
2019-05-01T04:22:21.442Z,101597.08
2019-05-01T04:24:52.117Z,101602.00
2019-05-01T04:27:27.781Z,101601.33
2019-05-01T04:30:30.300Z,101597.34
2019-05-01T04:33:03.116Z,101597.34
2019-05-01T04:35:54.255Z,101606.09
2019-05-01T04:38:24.947Z,101608.64
2019-05-01T04:40:55.536Z,101613.13
2019-05-01T04:43:26.539Z,101609.30
2019-05-01T04:45:57.369Z,101615.57
2019-05-01T04:48:27.904Z,101612.31
2019-05-01T04:50:58.762Z,101611.85
2019-05-01T04:53:29.623Z,101608.09
2019-05-01T04:55:59.927Z,101610.43
2019-05-01T04:58:31.157Z,101615.70
2019-05-01T05:01:01.854Z,101609.65
2019-05-01T05:03:32.579Z,101605.02
2019-05-01T05:06:03.055Z,101610.11
2019-05-01T05:08:34.392Z,101606.78
2019-05-01T05:11:10.459Z,101612.39
2019-05-01T05:13:48.226Z,101606.97
2019-05-01T05:16:23.848Z,101611.12
2019-05-01T05:18:54.722Z,101607.08
2019-05-01T05:21:25.331Z,101614.97
2019-05-01T05:23:56.264Z,101608.54
2019-05-01T05:26:27.074Z,101607.50
2019-05-01T05:28:59.583Z,101605.45
2019-05-01T05:31:32.829Z,101609.84
2019-05-01T05:34:06.339Z,101611.06
2019-05-01T05:36:38.187Z,101606.36
2019-05-01T05:39:18.122Z,101599.75
2019-05-01T05:41:50.761Z,101599.75
2019-05-01T05:44:21.055Z,101606.30
2019-05-01T05:46:51.736Z,101611.24
2019-05-01T05:49:22.821Z,101613.41
2019-05-01T05:52:05.550Z,101613.63
2019-05-01T05:55:01.567Z,101611.24
2019-05-01T05:57:54.483Z,101616.45
2019-05-01T06:00:48.018Z,101607.57
2019-05-01T06:03:58.275Z,101609.02
2019-05-01T06:06:35.510Z,101610.38
2019-05-01T06:09:09.078Z,101611.26
2019-05-01T06:12:12.627Z,101613.81
2019-05-01T06:14:57.670Z,101618.59
2019-05-01T06:17:52.882Z,101614.13
2019-05-01T06:20:44.784Z,101614.94
2019-05-01T06:23:34.386Z,101612.77
2019-05-01T06:26:32.106Z,101613.63
2019-05-01T06:29:03.371Z,101609.02
2019-05-01T06:31:33.827Z,101603.90
2019-05-01T06:34:04.705Z,101605.41
2019-05-01T06:36:35.115Z,101603.39
2019-05-01T06:39:11.724Z,101607.54
2019-05-01T06:41:44.102Z,101610.22
2019-05-01T06:44:24.295Z,101609.66
2019-05-01T06:47:16.246Z,101617.78
2019-05-01T06:50:12.948Z,101618.27
2019-05-01T06:52:43.848Z,101613.31
2019-05-01T06:55:15.218Z,101619.32
2019-05-01T06:57:46.269Z,101623.61
2019-05-01T07:00:18.013Z,101618.95
2019-05-01T07:02:50.869Z,101617.58
2019-05-01T07:05:22.445Z,101618.61
2019-05-01T07:07:55.002Z,101621.72
2019-05-01T07:10:31.678Z,101626.09
2019-05-01T07:13:05.016Z,101621.87
2019-05-01T07:15:34.921Z,101628.75
2019-05-01T07:18:05.390Z,101625.80
2019-05-01T07:20:53.568Z,101629.66
2019-05-01T07:23:25.704Z,101628.23
2019-05-01T07:25:55.992Z,101624.78
2019-05-01T07:28:34.238Z,101622.91
2019-05-01T07:31:13.840Z,101625.38
2019-05-01T07:33:47.144Z,101615.83
2019-05-01T07:36:22.354Z,101622.08
2019-05-01T07:38:52.911Z,101619.52
2019-05-01T07:41:23.279Z,101621.88
2019-05-01T07:44:16.016Z,101623.69
2019-05-01T07:46:54.178Z,101618.26
2019-05-01T07:49:32.436Z,101621.34
2019-05-01T07:52:03.141Z,101614.89
2019-05-01T07:54:37.853Z,101615.18
2019-05-01T07:57:06.504Z,101615.86
2019-05-01T07:59:37.041Z,101617.97
2019-05-01T08:02:11.461Z,101616.91
2019-05-01T08:04:41.754Z,101616.58
2019-05-01T08:07:12.490Z,101617.48
2019-05-01T08:09:45.805Z,101619.30
2019-05-01T08:12:18.982Z,101621.18
2019-05-01T08:14:47.732Z,101616.23
2019-05-01T08:17:21.321Z,101616.23
2019-05-01T08:19:57.018Z,101620.28
2019-05-01T08:22:32.169Z,101623.53
2019-05-01T08:25:03.394Z,101631.31
2019-05-01T08:27:58.126Z,101624.65
2019-05-01T08:30:59.905Z,101620.99
2019-05-01T08:33:44.785Z,101627.53
2019-05-01T08:36:16.330Z,101625.85
2019-05-01T08:38:46.726Z,101625.51
2019-05-01T08:41:17.027Z,101625.42
2019-05-01T08:43:48.921Z,101629.88
2019-05-01T08:46:38.933Z,101623.83
2019-05-01T08:49:20.105Z,101623.83
2019-05-01T08:51:50.822Z,101622.05
2019-05-01T08:54:22.428Z,101619.55
2019-05-01T08:56:58.097Z,101622.64
2019-05-01T08:59:25.794Z,101623.25
2019-05-01T09:02:08.873Z,101622.53
2019-05-01T09:04:30.481Z,101622.53
2019-05-01T09:07:02.283Z,101619.31
2019-05-01T09:09:33.480Z,101622.05
2019-05-01T09:12:06.919Z,101619.22
2019-05-01T09:14:36.884Z,101613.96
2019-05-01T09:17:09.049Z,101614.41
2019-05-01T09:19:39.727Z,101608.81
2019-05-01T09:22:10.418Z,101614.75
2019-05-01T09:24:42.807Z,101614.22
2019-05-01T09:27:39.623Z,101596.37
2019-05-01T09:30:21.828Z,101596.37
2019-05-01T09:32:54.608Z,101603.34
2019-05-01T09:35:26.379Z,101602.28
2019-05-01T09:37:56.778Z,101597.70
2019-05-01T09:40:28.157Z,101603.26
2019-05-01T09:42:59.334Z,101602.76
2019-05-01T09:45:30.817Z,101602.98
2019-05-01T09:48:02.823Z,101598.25
2019-05-01T09:50:37.721Z,101600.41
2019-05-01T09:53:34.198Z,101598.98
2019-05-01T09:56:07.768Z,101593.20
2019-05-01T09:58:38.907Z,101582.13
2019-05-01T10:01:09.310Z,101583.27
2019-05-01T10:03:39.646Z,101581.53
2019-05-01T10:06:12.766Z,101579.05
2019-05-01T10:08:42.257Z,101579.52
2019-05-01T10:11:12.845Z,101578.86
2019-05-01T10:13:43.148Z,101573.70
2019-05-01T10:16:13.555Z,101569.59
2019-05-01T10:18:44.180Z,101560.58
2019-05-01T10:21:14.902Z,101557.67
2019-05-01T10:23:47.149Z,101559.13
2019-05-01T10:26:24.096Z,101558.81
2019-05-01T10:29:10.311Z,101555.53
2019-05-01T10:32:09.109Z,101549.38
2019-05-01T10:35:03.670Z,101552.09
2019-05-01T10:37:35.489Z,101560.00
2019-05-01T10:40:07.582Z,101546.38
2019-05-01T10:42:40.922Z,101540.57
2019-05-01T10:45:10.646Z,101531.75
2019-05-01T10:47:41.259Z,101538.53
2019-05-01T10:50:12.406Z,101538.53
2019-05-01T10:52:42.860Z,101538.03
2019-05-01T10:55:13.561Z,101530.12
2019-05-01T10:57:43.968Z,101529.23
2019-05-01T11:00:15.338Z,101535.55
2019-05-01T11:02:47.231Z,101527.40
2019-05-01T11:05:17.620Z,101530.51
2019-05-01T11:07:49.677Z,101529.21
2019-05-01T11:10:20.291Z,101529.05
2019-05-01T11:12:52.614Z,101514.39
2019-05-01T11:15:22.941Z,101514.39
2019-05-01T11:17:54.132Z,101516.97
2019-05-01T11:20:25.086Z,101514.04
2019-05-01T11:22:55.526Z,101511.67
2019-05-01T11:25:26.800Z,101512.02
2019-05-01T11:27:57.720Z,101510.54
2019-05-01T11:30:28.052Z,101504.48
2019-05-01T11:33:13.503Z,101500.43
2019-05-01T11:36:09.189Z,101501.35
2019-05-01T11:38:45.935Z,101497.59
2019-05-01T11:41:31.140Z,101489.84
2019-05-01T11:44:02.012Z,101494.85
2019-05-01T11:46:32.391Z,101491.59
2019-05-01T11:49:03.754Z,101491.39
2019-05-01T11:51:35.072Z,101495.92
2019-05-01T11:54:05.496Z,101491.77
2019-05-01T11:56:38.161Z,101494.55
2019-05-01T11:59:08.529Z,101492.31
2019-05-01T12:01:40.131Z,101484.81
2019-05-01T12:04:10.833Z,101483.59
2019-05-01T12:06:41.763Z,101483.31
2019-05-01T12:09:13.237Z,101479.06
2019-05-01T12:11:46.396Z,101478.60
2019-05-01T12:14:17.090Z,101479.91
2019-05-01T12:17:14.814Z,101470.84
2019-05-01T12:19:45.852Z,101470.05
2019-05-01T12:22:16.518Z,101469.86
2019-05-01T12:24:47.217Z,101464.95
2019-05-01T12:27:17.890Z,101458.73
2019-05-01T12:29:48.532Z,101454.92
2019-05-01T12:32:19.050Z,101451.11
2019-05-01T12:34:50.088Z,101444.58
2019-05-01T12:37:26.362Z,101442.22
2019-05-01T12:39:57.156Z,101441.52
2019-05-01T12:42:28.058Z,101439.78
2019-05-01T12:44:58.531Z,101432.61
2019-05-01T12:47:48.203Z,101435.04
2019-05-01T12:50:21.829Z,101430.52
2019-05-01T12:53:17.103Z,101435.11
2019-05-01T12:56:15.612Z,101424.70
2019-05-01T12:58:47.549Z,101424.84
2019-05-01T13:01:18.020Z,101430.95
2019-05-01T13:03:48.372Z,101425.84
2019-05-01T13:06:19.006Z,101413.14
2019-05-01T13:08:49.627Z,101409.52
2019-05-01T13:11:20.343Z,101415.75
2019-05-01T13:13:51.142Z,101410.54
2019-05-01T13:16:21.777Z,101403.10
2019-05-01T13:18:53.349Z,101408.94
2019-05-01T13:21:23.693Z,101399.08
2019-05-01T13:23:55.436Z,101394.49
2019-05-01T13:26:35.274Z,101396.64
2019-05-01T13:29:34.572Z,101390.72
2019-05-01T13:32:22.684Z,101385.83
2019-05-01T13:34:53.559Z,101378.73
2019-05-01T13:37:24.891Z,101382.87
2019-05-01T13:39:55.383Z,101375.40
2019-05-01T13:42:26.919Z,101371.45
2019-05-01T13:44:58.424Z,101364.67
2019-05-01T13:47:28.952Z,101365.42
2019-05-01T13:49:59.920Z,101354.62
2019-05-01T13:52:30.898Z,101358.13
2019-05-01T13:55:01.742Z,101352.18
2019-05-01T13:57:32.479Z,101348.41
2019-05-01T14:00:03.178Z,101338.86
2019-05-01T14:02:35.523Z,101340.55
2019-05-01T14:05:06.802Z,101340.77
2019-05-01T14:07:37.989Z,101337.05
2019-05-01T14:10:08.885Z,101328.42
2019-05-01T14:12:39.760Z,101327.23
2019-05-01T14:15:10.506Z,101326.09
2019-05-01T14:17:42.660Z,101323.94
2019-05-01T14:20:35.321Z,101317.91
2019-05-01T14:23:10.956Z,101316.06
2019-05-01T14:25:59.533Z,101316.84
2019-05-01T14:28:30.236Z,101322.32
2019-05-01T14:31:01.009Z,101319.45
2019-05-01T14:33:32.694Z,101317.09
2019-05-01T14:36:03.083Z,101315.83
2019-05-01T14:38:33.775Z,101314.47
2019-05-01T14:41:04.168Z,101313.69
2019-05-01T14:43:34.880Z,101298.87
2019-05-01T14:46:05.702Z,101296.83
2019-05-01T14:48:36.352Z,101299.04
2019-05-01T14:51:07.069Z,101294.97
2019-05-01T14:53:38.132Z,101294.05
2019-05-01T14:56:11.101Z,101296.27
2019-05-01T14:58:41.699Z,101290.09
2019-05-01T15:01:12.255Z,101286.44
2019-05-01T15:03:43.753Z,101276.88
2019-05-01T15:06:14.909Z,101276.88
2019-05-01T15:08:45.529Z,101280.31
2019-05-01T15:11:16.450Z,101278.95
2019-05-01T15:13:59.464Z,101273.78
2019-05-01T15:17:07.314Z,101265.33
2019-05-01T15:19:44.843Z,101266.47
2019-05-01T15:22:15.189Z,101259.66
2019-05-01T15:24:45.936Z,101255.05
2019-05-01T15:27:16.265Z,101258.52
2019-05-01T15:29:48.276Z,101255.23
2019-05-01T15:32:19.192Z,101254.11
2019-05-01T15:34:50.482Z,101245.31
2019-05-01T15:37:21.176Z,101241.95
2019-05-01T15:40:02.576Z,101242.00
2019-05-01T15:42:45.579Z,101246.22
2019-05-01T15:45:16.410Z,101236.28
2019-05-01T15:47:46.821Z,101236.28
2019-05-01T15:50:17.499Z,101239.97
2019-05-01T15:52:47.812Z,101234.70
2019-05-01T15:55:18.113Z,101229.31
2019-05-01T15:57:48.785Z,101224.86
2019-05-01T16:00:21.295Z,101232.41
2019-05-01T16:02:53.700Z,101221.22
2019-05-01T16:05:25.175Z,101225.33
2019-05-01T16:07:55.626Z,101217.87
2019-05-01T16:10:31.941Z,101219.69
2019-05-01T16:13:03.746Z,101213.64
2019-05-01T16:15:35.148Z,101217.80
2019-05-01T16:18:07.199Z,101217.30
2019-05-01T16:20:37.641Z,101212.41
2019-05-01T16:23:08.424Z,101207.36
2019-05-01T16:25:39.029Z,101206.06
2019-05-01T16:28:09.332Z,101200.93
2019-05-01T16:30:42.117Z,101198.56
2019-05-01T16:33:12.413Z,101189.13
2019-05-01T16:35:43.057Z,101194.94
2019-05-01T16:38:23.823Z,101199.39
2019-05-01T16:41:07.893Z,101196.30
2019-05-01T16:43:38.474Z,101193.38
2019-05-01T16:46:09.569Z,101188.25
2019-05-01T16:48:40.326Z,101191.71
2019-05-01T16:51:12.120Z,101191.25
2019-05-01T16:53:43.873Z,101185.59
2019-05-01T16:56:14.217Z,101184.94
2019-05-01T16:58:46.278Z,101184.10
2019-05-01T17:01:44.673Z,101174.97
2019-05-01T17:04:34.308Z,101173.57
2019-05-01T17:07:21.289Z,101178.96
2019-05-01T17:10:02.740Z,101165.81
2019-05-01T17:12:41.780Z,101163.70
2019-05-01T17:15:12.468Z,101163.70
2019-05-01T17:17:43.592Z,101164.06
2019-05-01T17:20:15.237Z,101161.48
2019-05-01T17:22:46.310Z,101157.23
2019-05-01T17:25:18.211Z,101155.89
2019-05-01T17:27:48.865Z,101159.20
2019-05-01T17:30:24.781Z,101158.19
2019-05-01T17:32:55.556Z,101156.63
2019-05-01T17:35:26.335Z,101163.32
2019-05-01T17:37:56.790Z,101157.95
2019-05-01T17:40:28.089Z,101157.72
2019-05-01T17:42:58.465Z,101157.58
2019-05-01T17:45:29.940Z,101155.20
2019-05-01T17:48:01.611Z,101148.50
2019-05-01T17:50:32.055Z,101155.14
2019-05-01T17:53:02.413Z,101157.09
2019-05-01T17:55:33.251Z,101150.45
2019-05-01T17:58:03.527Z,101151.52
2019-05-01T18:00:51.743Z,101155.58
2019-05-01T18:03:44.569Z,101150.95
2019-05-01T18:06:20.658Z,101150.95
2019-05-01T18:09:02.493Z,101155.05
2019-05-01T18:11:23.860Z,101155.26
2019-05-01T18:13:54.786Z,101147.64
2019-05-01T18:16:26.548Z,101150.23
2019-05-01T18:18:57.214Z,101151.66
2019-05-01T18:21:29.297Z,101149.39
2019-05-01T18:24:18.971Z,101153.17
2019-05-01T18:27:04.415Z,101158.64
2019-05-01T18:29:54.794Z,101148.95
2019-05-01T18:32:46.878Z,101149.95
2019-05-01T18:35:17.661Z,101152.47
2019-05-01T18:37:59.832Z,101151.42
2019-05-01T18:40:37.859Z,101147.83
2019-05-01T18:43:08.386Z,101143.72
2019-05-01T18:45:51.011Z,101152.42
2019-05-01T18:48:22.482Z,101152.94
2019-05-01T18:50:54.962Z,101144.36
2019-05-01T18:53:25.425Z,101145.77
2019-05-01T18:55:55.835Z,101144.71
2019-05-01T18:58:26.558Z,101147.88
2019-05-01T19:00:56.955Z,101147.48
2019-05-01T19:03:29.810Z,101153.61
2019-05-01T19:05:59.728Z,101148.44
2019-05-01T19:08:30.658Z,101144.80
2019-05-01T19:11:11.742Z,101142.84
2019-05-01T19:13:33.523Z,101147.64
2019-05-01T19:16:08.385Z,101146.90
2019-05-01T19:18:37.541Z,101146.19
2019-05-01T19:21:08.745Z,101153.56
2019-05-01T19:23:41.893Z,101147.45
2019-05-01T19:26:14.113Z,101153.62
2019-05-01T19:28:46.474Z,101155.16
2019-05-01T19:31:21.383Z,101153.70
2019-05-01T19:33:51.541Z,101150.92
2019-05-01T19:36:22.251Z,101156.38
2019-05-01T19:38:52.843Z,101156.59
2019-05-01T19:41:24.209Z,101152.50
2019-05-01T19:43:54.715Z,101155.61
2019-05-01T19:46:26.791Z,101156.38
2019-05-01T19:48:58.145Z,101158.94
2019-05-01T19:51:28.767Z,101153.66
2019-05-01T19:53:59.438Z,101153.36
2019-05-01T19:56:29.740Z,101151.38
2019-05-01T19:59:00.449Z,101156.75
2019-05-01T20:01:30.750Z,101156.52
2019-05-01T20:04:01.367Z,101155.41
2019-05-01T20:06:32.813Z,101159.89
2019-05-01T20:09:04.331Z,101162.81
2019-05-01T20:11:36.635Z,101155.06
2019-05-01T20:14:07.344Z,101159.49
2019-05-01T20:16:37.885Z,101159.49
2019-05-01T20:19:08.508Z,101153.02
2019-05-01T20:21:41.658Z,101156.80
2019-05-01T20:24:13.258Z,101154.40
2019-05-01T20:26:43.705Z,101155.28
2019-05-01T20:29:14.396Z,101153.86
2019-05-01T20:31:45.851Z,101155.56
2019-05-01T20:34:18.786Z,101151.14
2019-05-01T20:36:49.231Z,101152.82
2019-05-01T20:39:19.872Z,101154.98
2019-05-01T20:41:50.277Z,101151.25
2019-05-01T20:44:24.046Z,101153.70
2019-05-01T20:46:53.731Z,101146.93
2019-05-01T20:49:25.400Z,101150.88
2019-05-01T20:51:55.730Z,101141.54
2019-05-01T20:54:26.898Z,101155.84
2019-05-01T20:57:04.575Z,101156.00
2019-05-01T20:59:39.215Z,101152.81
2019-05-01T21:02:09.331Z,101157.42
2019-05-01T21:04:54.856Z,101146.50
2019-05-01T21:07:31.045Z,101151.39
2019-05-01T21:10:02.639Z,101155.23
2019-05-01T21:12:33.340Z,101151.44
2019-05-01T21:15:04.303Z,101152.56
2019-05-01T21:17:34.838Z,101152.21
2019-05-01T21:20:05.710Z,101153.50
2019-05-01T21:22:36.001Z,101146.98
2019-05-01T21:25:06.433Z,101150.18
2019-05-01T21:27:36.739Z,101154.94
2019-05-01T21:30:07.891Z,101150.20
2019-05-01T21:32:38.295Z,101150.80
2019-05-01T21:35:09.093Z,101141.89
2019-05-01T21:37:39.508Z,101141.89
2019-05-01T21:40:09.927Z,101146.20
2019-05-01T21:42:40.222Z,101147.48
2019-05-01T21:45:12.797Z,101143.78
2019-05-01T21:47:43.136Z,101145.35
2019-05-01T21:50:17.860Z,101143.55
2019-05-01T21:52:45.706Z,101142.55
2019-05-01T21:55:16.016Z,101139.86
2019-05-01T21:57:49.984Z,101135.50
2019-05-01T22:00:20.083Z,101144.85
2019-05-01T22:02:53.106Z,101141.45
2019-05-01T22:05:23.495Z,101140.23
2019-05-01T22:07:54.112Z,101140.81
2019-05-01T22:10:29.585Z,101139.06
2019-05-01T22:13:00.612Z,101141.71
2019-05-01T22:15:36.029Z,101145.86
2019-05-01T22:18:32.838Z,101142.37
2019-05-01T22:21:17.230Z,101139.81
2019-05-01T22:24:05.248Z,101142.55
2019-05-01T22:26:39.037Z,101138.68
2019-05-01T22:29:11.298Z,101146.24
2019-05-01T22:31:57.588Z,101144.39
2019-05-01T22:34:35.004Z,101147.90
2019-05-01T22:37:07.120Z,101143.13
2019-05-01T22:39:39.768Z,101138.75
2019-05-01T22:42:10.334Z,101140.83
2019-05-01T22:44:40.635Z,101141.83
2019-05-01T22:47:15.101Z,101136.44
2019-05-01T22:49:44.251Z,101135.71
2019-05-01T22:52:18.129Z,101126.27
2019-05-01T22:54:49.147Z,101126.27
2019-05-01T22:57:21.343Z,101134.80
2019-05-01T22:59:51.954Z,101135.00
2019-05-01T23:02:41.582Z,101126.13
2019-05-01T23:05:12.152Z,101128.73
2019-05-01T23:07:42.461Z,101127.81
2019-05-01T23:10:12.998Z,101125.95
2019-05-01T23:12:44.399Z,101127.87
2019-05-01T23:15:20.275Z,101128.12
2019-05-01T23:17:50.919Z,101128.60
2019-05-01T23:20:21.519Z,101126.45
2019-05-01T23:22:52.143Z,101122.48
2019-05-01T23:25:22.765Z,101121.54
2019-05-01T23:27:53.156Z,101129.83
2019-05-01T23:30:23.504Z,101123.59
2019-05-01T23:32:54.001Z,101122.52
2019-05-01T23:35:24.603Z,101122.86
2019-05-01T23:37:54.909Z,101116.69
2019-05-01T23:40:25.476Z,101114.67
2019-05-01T23:42:55.762Z,101112.70
2019-05-01T23:45:26.432Z,101109.27
2019-05-01T23:47:56.727Z,101103.38
2019-05-01T23:50:27.075Z,101101.27
2019-05-01T23:52:57.390Z,101100.30
2019-05-01T23:55:27.642Z,101095.11
2019-05-01T23:57:58.199Z,101099.38
